Time;durP1;ratioP1;P1;durP2;ratioP2;P2;SDS_P1;SDS_P2;PMS_P1;PMS_P2;Temp;Humidity;BMP_temperature;BMP_pressure;BME280_temperature;BME280_humidity;BME280_pressure;Samples;Min_cycle;Max_cycle;Signal;HPM_P1;HPM_P2
2022/03/10 00:02:09;;;;;;;29.38;12.07;;;;;;;;;;5108904;28;20072;-74
2022/03/10 00:04:38;;;;;;;30.85;12.73;;;;;;;;;;5113595;27;20106;-74
2022/03/10 00:07:04;;;;;;;36.38;13.18;;;;;;;;;;5114645;27;20507;-74
2022/03/10 00:09:30;;;;;;;33.40;13.23;;;;;;;;;;5112255;27;20141;-74
2022/03/10 00:11:56;;;;;;;33.75;13.45;;;;;;;;;;5110422;27;20028;-74
2022/03/10 00:14:22;;;;;;;35.08;13.20;;;;;;;;;;5109133;28;20045;-74
2022/03/10 00:16:48;;;;;;;31.55;12.60;;;;;;;;;;5116819;27;20412;-74
2022/03/10 00:19:14;;;;;;;29.27;11.82;;;;;;;;;;5114965;27;20463;-74
2022/03/10 00:21:39;;;;;;;30.98;12.57;;;;;;;;;;5108827;28;20531;-74
2022/03/10 00:24:05;;;;;;;33.00;12.93;;;;;;;;;;5099284;28;20468;-74
2022/03/10 00:26:31;;;;;;;34.38;13.27;;;;;;;;;;5088389;28;20024;-74
2022/03/10 00:28:56;;;;;;;29.23;12.15;;;;;;;;;;5098329;28;20567;-73
2022/03/10 00:31:21;;;;;;;36.35;12.77;;;;;;;;;;5109830;27;20034;-74
2022/03/10 00:33:47;;;;;;;31.38;12.23;;;;;;;;;;5106531;28;20121;-74
2022/03/10 00:36:12;;;;;;;30.00;12.98;;;;;;;;;;5105892;28;20120;-74
2022/03/10 00:38:38;;;;;;;34.08;12.82;;;;;;;;;;5108587;27;20034;-73
2022/03/10 00:41:03;;;;;;;34.90;12.75;;;;;;;;;;5105569;27;20050;-73
2022/03/10 00:43:29;;;;;;;33.40;12.23;;;;;;;;;;5109886;27;20058;-73
2022/03/10 00:45:54;;;;;;;33.58;13.30;;;;;;;;;;5109978;27;20496;-74
2022/03/10 00:48:19;;;;;;;34.92;13.73;;;;;;;;;;5107598;28;20027;-73
2022/03/10 00:50:45;;;;;;;35.47;14.18;;;;;;;;;;5104829;28;20038;-73
2022/03/10 00:53:10;;;;;;;38.40;14.10;;;;;;;;;;5107692;28;20032;-73
2022/03/10 00:55:36;;;;;;;31.08;13.40;;;;;;;;;;5108922;28;20039;-73
2022/03/10 00:58:01;;;;;;;34.42;12.85;;;;;;;;;;5108897;28;20052;-73
2022/03/10 01:00:28;;;;;;;32.17;13.38;;;;;;;;;;5104469;27;20051;-73
2022/03/10 01:02:54;;;;;;;35.53;13.35;;;;;;;;;;5106936;28;20107;-74
2022/03/10 01:05:20;;;;;;;32.40;12.90;;;;;;;;;;5117192;27;20027;-74
2022/03/10 01:07:45;;;;;;;31.02;12.23;;;;;;;;;;5108357;27;20539;-74
2022/03/10 01:10:12;;;;;;;35.90;12.85;;;;;;;;;;5111942;27;20054;-73
2022/03/10 01:12:41;;;;;;;35.15;13.38;;;;;;;;;;5122857;27;20035;-74
2022/03/10 01:15:09;;;;;;;32.42;12.52;;;;;;;;;;5111840;27;20043;-73
2022/03/10 01:17:34;;;;;;;32.22;13.13;;;;;;;;;;5106474;27;20027;-73
2022/03/10 01:19:59;;;;;;;33.28;12.43;;;;;;;;;;5102247;28;20082;-73
2022/03/10 01:22:25;;;;;;;34.47;12.98;;;;;;;;;;5106583;28;20046;-73
2022/03/10 01:24:50;;;;;;;34.42;11.88;;;;;;;;;;5101919;27;20119;-74
2022/03/10 01:27:16;;;;;;;36.55;12.88;;;;;;;;;;5109285;27;20028;-74
2022/03/10 01:29:41;;;;;;;30.35;11.52;;;;;;;;;;5107370;27;20032;-74
2022/03/10 01:32:06;;;;;;;34.00;11.93;;;;;;;;;;5120471;27;20530;-74
2022/03/10 01:34:32;;;;;;;34.60;12.45;;;;;;;;;;5111579;27;20028;-73
2022/03/10 01:36:58;;;;;;;34.10;12.73;;;;;;;;;;5118104;27;20039;-73
2022/03/10 01:39:24;;;;;;;31.83;12.13;;;;;;;;;;5107531;27;20035;-74
2022/03/10 01:41:49;;;;;;;29.52;11.00;;;;;;;;;;5101243;27;20028;-74
2022/03/10 01:44:16;;;;;;;31.33;12.02;;;;;;;;;;5105236;28;20032;-73
2022/03/10 01:46:41;;;;;;;28.98;11.90;;;;;;;;;;5108127;28;20040;-74
2022/03/10 01:49:07;;;;;;;29.63;11.85;;;;;;;;;;5108293;27;20032;-74
2022/03/10 01:51:34;;;;;;;40.15;13.38;;;;;;;;;;5106885;27;20031;-74
2022/03/10 01:54:01;;;;;;;38.85;13.55;;;;;;;;;;5107393;28;20030;-74
2022/03/10 01:56:26;;;;;;;40.70;14.50;;;;;;;;;;5102262;28;20460;-74
2022/03/10 01:58:53;;;;;;;37.85;12.57;;;;;;;;;;5097577;28;20578;-73
2022/03/10 02:01:20;;;;;;;31.95;12.77;;;;;;;;;;5105807;27;20516;-73
2022/03/10 02:03:46;;;;;;;31.63;11.88;;;;;;;;;;5105390;27;20028;-73
2022/03/10 02:06:12;;;;;;;29.65;12.00;;;;;;;;;;5117343;27;20044;-73
2022/03/10 02:11:29;;;;;;;33.80;11.93;;;;;;;;;;5088058;28;20047;-73
2022/03/10 02:13:54;;;;;;;31.27;12.48;;;;;;;;;;5104483;28;20023;-73
2022/03/10 02:19:04;;;;;;;29.80;12.10;;;;;;;;;;5108018;27;20119;-73
2022/03/10 02:21:29;;;;;;;32.47;11.35;;;;;;;;;;5107166;27;20122;-73
2022/03/10 02:23:55;;;;;;;31.73;12.82;;;;;;;;;;5106701;28;20027;-73
2022/03/10 02:26:20;;;;;;;30.27;11.10;;;;;;;;;;5107031;28;20067;-74
2022/03/10 02:28:48;;;;;;;34.30;11.98;;;;;;;;;;5106372;28;20031;-73
2022/03/10 02:31:13;;;;;;;34.17;11.80;;;;;;;;;;5099909;28;20035;-73
2022/03/10 02:33:40;;;;;;;32.97;11.80;;;;;;;;;;5107186;28;20032;-74
2022/03/10 02:36:05;;;;;;;29.90;11.35;;;;;;;;;;5105947;28;20516;-73
2022/03/10 02:38:32;;;;;;;33.72;11.90;;;;;;;;;;5119037;27;20027;-74
2022/03/10 02:40:57;;;;;;;34.63;13.02;;;;;;;;;;5090874;28;20064;-74
2022/03/10 02:43:23;;;;;;;30.75;11.85;;;;;;;;;;5108302;27;20074;-74
2022/03/10 02:45:49;;;;;;;31.20;11.70;;;;;;;;;;5108213;27;20408;-73
2022/03/10 02:48:15;;;;;;;33.97;12.75;;;;;;;;;;5110274;27;20048;-73
2022/03/10 02:50:41;;;;;;;32.38;11.52;;;;;;;;;;5104195;27;20038;-73
2022/03/10 02:53:06;;;;;;;29.83;11.73;;;;;;;;;;5110103;28;20027;-74
2022/03/10 02:55:32;;;;;;;32.33;11.88;;;;;;;;;;5111703;27;20031;-73
2022/03/10 02:57:58;;;;;;;32.10;12.40;;;;;;;;;;5111346;27;20058;-74
2022/03/10 03:00:23;;;;;;;30.55;12.05;;;;;;;;;;5110423;28;20032;-74
2022/03/10 03:02:49;;;;;;;31.13;11.90;;;;;;;;;;5110698;27;20126;-73
2022/03/10 03:05:15;;;;;;;31.08;11.88;;;;;;;;;;5113962;27;20024;-74
2022/03/10 03:07:41;;;;;;;30.58;11.77;;;;;;;;;;5108915;27;20036;-73
2022/03/10 03:10:07;;;;;;;31.42;12.30;;;;;;;;;;5113375;27;20111;-74
2022/03/10 03:12:33;;;;;;;31.45;12.27;;;;;;;;;;5112902;27;20035;-73
2022/03/10 03:14:59;;;;;;;30.50;11.55;;;;;;;;;;5111987;27;20101;-73
2022/03/10 03:17:25;;;;;;;31.77;11.15;;;;;;;;;;5111433;28;20050;-73
2022/03/10 03:19:53;;;;;;;36.47;13.00;;;;;;;;;;5110491;27;20028;-73
2022/03/10 03:22:19;;;;;;;29.08;11.43;;;;;;;;;;5108332;28;20035;-74
2022/03/10 03:24:45;;;;;;;31.27;12.05;;;;;;;;;;5110776;28;20035;-73
2022/03/10 03:27:12;;;;;;;31.75;11.05;;;;;;;;;;5107340;28;20069;-74
2022/03/10 03:29:37;;;;;;;31.52;11.48;;;;;;;;;;5105229;28;20079;-74
2022/03/10 03:32:04;;;;;;;30.40;12.45;;;;;;;;;;5111600;28;20027;-73
2022/03/10 03:34:29;;;;;;;32.40;11.75;;;;;;;;;;5110985;27;20122;-73
2022/03/10 03:36:55;;;;;;;31.85;12.27;;;;;;;;;;5108346;28;20123;-74
2022/03/10 03:39:20;;;;;;;31.58;12.90;;;;;;;;;;5107323;27;20123;-73
2022/03/10 03:41:46;;;;;;;32.38;11.73;;;;;;;;;;5110300;27;21307;-73
2022/03/10 03:44:11;;;;;;;27.15;10.98;;;;;;;;;;5109489;27;20028;-74
2022/03/10 03:46:38;;;;;;;29.92;11.60;;;;;;;;;;5109791;28;20408;-73
2022/03/10 03:49:03;;;;;;;36.42;12.18;;;;;;;;;;5106511;27;20043;-73
2022/03/10 03:51:28;;;;;;;35.28;11.48;;;;;;;;;;5131174;27;20042;-74
2022/03/10 03:53:54;;;;;;;30.67;10.98;;;;;;;;;;5112186;27;20032;-73
2022/03/10 03:56:19;;;;;;;32.67;11.10;;;;;;;;;;5110000;28;20023;-73
2022/03/10 03:58:45;;;;;;;29.83;11.23;;;;;;;;;;5109237;28;20086;-73
2022/03/10 04:01:10;;;;;;;30.10;12.20;;;;;;;;;;5106141;27;20531;-73
2022/03/10 04:03:36;;;;;;;31.98;10.68;;;;;;;;;;5089431;27;20142;-73
2022/03/10 04:06:01;;;;;;;29.25;10.73;;;;;;;;;;5089385;28;20127;-74
2022/03/10 04:08:26;;;;;;;29.50;11.30;;;;;;;;;;5088785;28;20691;-73
2022/03/10 04:10:52;;;;;;;30.67;11.73;;;;;;;;;;5109956;27;20044;-73
2022/03/10 04:13:19;;;;;;;29.75;12.18;;;;;;;;;;5110456;27;20043;-73
2022/03/10 04:15:44;;;;;;;29.98;11.52;;;;;;;;;;5090029;28;20089;-73
2022/03/10 04:18:10;;;;;;;32.70;11.73;;;;;;;;;;5092656;28;20361;-74
2022/03/10 04:20:36;;;;;;;31.02;11.35;;;;;;;;;;5109016;27;20496;-74
2022/03/10 04:23:01;;;;;;;28.25;10.95;;;;;;;;;;5110260;28;20034;-73
2022/03/10 04:25:26;;;;;;;32.13;10.88;;;;;;;;;;5096224;28;20035;-73
2022/03/10 04:27:56;;;;;;;29.65;11.43;;;;;;;;;;5086858;28;20096;-74
2022/03/10 04:30:24;;;;;;;34.33;12.45;;;;;;;;;;5088142;28;20047;-74
2022/03/10 04:32:50;;;;;;;28.27;11.88;;;;;;;;;;5089499;28;20047;-73
2022/03/10 04:35:17;;;;;;;28.13;10.88;;;;;;;;;;5089019;28;20028;-74
2022/03/10 04:37:48;;;;;;;26.63;10.52;;;;;;;;;;5088325;28;20058;-73
2022/03/10 04:40:13;;;;;;;28.17;11.18;;;;;;;;;;5088378;27;20089;-73
2022/03/10 04:42:39;;;;;;;29.40;12.15;;;;;;;;;;5072646;28;20040;-73
2022/03/10 04:45:06;;;;;;;28.80;11.70;;;;;;;;;;5081622;28;20048;-74
2022/03/10 04:47:32;;;;;;;24.70;10.65;;;;;;;;;;5090286;28;20030;-73
2022/03/10 04:49:57;;;;;;;28.98;11.23;;;;;;;;;;5114522;27;20027;-73
2022/03/10 04:52:27;;;;;;;27.67;10.25;;;;;;;;;;5111156;27;20040;-74
2022/03/10 04:54:53;;;;;;;28.85;11.38;;;;;;;;;;5109487;27;20416;-73
2022/03/10 04:57:18;;;;;;;30.10;11.18;;;;;;;;;;5115945;27;20058;-74
2022/03/10 04:59:44;;;;;;;26.90;10.32;;;;;;;;;;5116888;27;20078;-73
2022/03/10 05:02:09;;;;;;;35.63;11.05;;;;;;;;;;5109912;28;20444;-74
2022/03/10 05:04:35;;;;;;;30.00;12.13;;;;;;;;;;5107203;28;20039;-73
2022/03/10 05:07:00;;;;;;;26.00;11.05;;;;;;;;;;5098798;27;20111;-73
2022/03/10 05:09:25;;;;;;;28.55;11.05;;;;;;;;;;5099646;27;20500;-74
2022/03/10 05:11:50;;;;;;;26.55;10.52;;;;;;;;;;5101789;28;20043;-73
2022/03/10 05:14:16;;;;;;;30.00;11.45;;;;;;;;;;5094691;28;20082;-73
2022/03/10 05:16:41;;;;;;;27.65;10.40;;;;;;;;;;5082444;28;20185;-73
2022/03/10 05:19:07;;;;;;;27.92;10.52;;;;;;;;;;5082216;28;20040;-74
2022/03/10 05:21:32;;;;;;;30.45;11.88;;;;;;;;;;5109063;27;20512;-74
2022/03/10 05:23:57;;;;;;;30.67;10.98;;;;;;;;;;5108730;27;20416;-73
2022/03/10 05:26:23;;;;;;;32.85;11.32;;;;;;;;;;5109066;27;20035;-74
2022/03/10 05:28:48;;;;;;;31.13;10.90;;;;;;;;;;5108832;27;20031;-73
2022/03/10 05:31:13;;;;;;;28.85;11.13;;;;;;;;;;5105405;27;20043;-73
2022/03/10 05:33:39;;;;;;;28.05;11.20;;;;;;;;;;5107368;27;20055;-73
2022/03/10 05:36:04;;;;;;;32.35;11.70;;;;;;;;;;5106757;28;20093;-74
2022/03/10 05:38:29;;;;;;;34.47;11.25;;;;;;;;;;5107344;27;20038;-74
2022/03/10 05:40:55;;;;;;;29.73;11.52;;;;;;;;;;5106303;28;20031;-74
2022/03/10 05:43:20;;;;;;;26.67;10.90;;;;;;;;;;5107148;28;20039;-74
2022/03/10 05:45:45;;;;;;;25.88;10.10;;;;;;;;;;5106185;28;20542;-74
2022/03/10 05:48:11;;;;;;;28.23;11.45;;;;;;;;;;5100970;28;20048;-74
2022/03/10 05:50:36;;;;;;;28.60;11.07;;;;;;;;;;5102119;28;20513;-73
2022/03/10 05:53:03;;;;;;;27.42;10.82;;;;;;;;;;5108768;28;20031;-74
2022/03/10 05:55:29;;;;;;;32.75;11.07;;;;;;;;;;5109014;27;20505;-73
2022/03/10 05:57:55;;;;;;;27.92;11.02;;;;;;;;;;5082526;27;20394;-74
2022/03/10 06:00:21;;;;;;;32.92;12.63;;;;;;;;;;5093713;28;20477;-73
2022/03/10 06:02:46;;;;;;;30.52;11.98;;;;;;;;;;5106293;27;20042;-74
2022/03/10 06:05:11;;;;;;;30.23;11.25;;;;;;;;;;5105340;27;20104;-74
2022/03/10 06:07:37;;;;;;;27.10;10.50;;;;;;;;;;5106488;28;20488;-74
2022/03/10 06:10:03;;;;;;;25.88;11.40;;;;;;;;;;5108532;27;20057;-73
2022/03/10 06:12:29;;;;;;;31.55;12.15;;;;;;;;;;5109637;27;20040;-73
2022/03/10 06:14:56;;;;;;;24.75;10.55;;;;;;;;;;5109396;27;20043;-73
2022/03/10 06:17:22;;;;;;;29.40;11.10;;;;;;;;;;5099265;28;20504;-73
2022/03/10 06:19:48;;;;;;;31.23;11.50;;;;;;;;;;5087885;28;20039;-74
2022/03/10 06:22:18;;;;;;;29.88;11.20;;;;;;;;;;5101626;28;20500;-74
2022/03/10 06:24:44;;;;;;;33.83;11.68;;;;;;;;;;5097557;27;20123;-74
2022/03/10 06:27:10;;;;;;;37.67;11.45;;;;;;;;;;5101230;28;20077;-74
2022/03/10 06:29:38;;;;;;;29.42;12.13;;;;;;;;;;5107212;27;20673;-79
2022/03/10 06:32:03;;;;;;;29.10;12.27;;;;;;;;;;5099147;27;20028;-79
2022/03/10 06:34:28;;;;;;;39.42;11.27;;;;;;;;;;5113158;27;20408;-75
2022/03/10 06:36:56;;;;;;;38.22;11.85;;;;;;;;;;5124029;27;20043;-79
2022/03/10 06:39:21;;;;;;;29.77;11.43;;;;;;;;;;5108229;27;20032;-74
2022/03/10 06:41:47;;;;;;;35.63;12.05;;;;;;;;;;5107547;27;20476;-77
2022/03/10 06:44:12;;;;;;;28.73;10.95;;;;;;;;;;5114038;27;20023;-74
2022/03/10 06:46:37;;;;;;;28.70;11.73;;;;;;;;;;5112554;28;20031;-74
2022/03/10 06:49:03;;;;;;;37.95;13.93;;;;;;;;;;5114773;27;20027;-76
2022/03/10 06:51:28;;;;;;;36.45;14.45;;;;;;;;;;5112575;27;20126;-75
2022/03/10 06:53:54;;;;;;;37.65;13.40;;;;;;;;;;5108449;27;20153;-74
2022/03/10 06:56:20;;;;;;;33.58;13.68;;;;;;;;;;5110650;27;20146;-74
2022/03/10 06:58:45;;;;;;;37.80;13.15;;;;;;;;;;5100629;27;20052;-76
2022/03/10 07:01:10;;;;;;;41.97;13.88;;;;;;;;;;5093544;28;20032;-78
2022/03/10 07:03:36;;;;;;;38.90;12.40;;;;;;;;;;5113060;27;20039;-73
2022/03/10 07:06:02;;;;;;;34.58;12.93;;;;;;;;;;5119643;27;20386;-73
2022/03/10 07:08:27;;;;;;;38.50;14.38;;;;;;;;;;5105193;27;20042;-71
2022/03/10 07:10:54;;;;;;;35.22;15.30;;;;;;;;;;5102346;27;20109;-72
2022/03/10 07:13:20;;;;;;;33.97;13.57;;;;;;;;;;5105379;27;20039;-74
2022/03/10 07:15:45;;;;;;;36.00;13.70;;;;;;;;;;5113702;27;20044;-74
2022/03/10 07:18:10;;;;;;;30.25;12.25;;;;;;;;;;5108662;27;20047;-76
2022/03/10 07:20:36;;;;;;;36.83;14.27;;;;;;;;;;5106591;27;20551;-77
2022/03/10 07:23:01;;;;;;;35.05;14.18;;;;;;;;;;5100995;28;20027;-74
2022/03/10 07:25:27;;;;;;;31.38;12.93;;;;;;;;;;5106448;27;20093;-76
2022/03/10 07:27:53;;;;;;;35.05;12.77;;;;;;;;;;5105561;27;20035;-79
2022/03/10 07:30:18;;;;;;;32.45;13.73;;;;;;;;;;5110481;27;20057;-72
2022/03/10 07:32:43;;;;;;;31.17;12.48;;;;;;;;;;5110970;27;20381;-74
2022/03/10 07:35:09;;;;;;;30.52;12.35;;;;;;;;;;5109020;28;20391;-74
2022/03/10 07:37:34;;;;;;;29.20;13.40;;;;;;;;;;5100966;28;20559;-74
2022/03/10 07:40:00;;;;;;;39.67;14.10;;;;;;;;;;5109935;27;20074;-74
2022/03/10 07:42:25;;;;;;;34.83;12.93;;;;;;;;;;5103717;27;20047;-74
2022/03/10 07:44:50;;;;;;;33.72;12.68;;;;;;;;;;5105262;27;20127;-75
2022/03/10 07:47:16;;;;;;;34.70;13.32;;;;;;;;;;5100157;28;20597;-74
2022/03/10 07:49:41;;;;;;;35.00;12.85;;;;;;;;;;5104614;28;20417;-74
2022/03/10 07:52:07;;;;;;;32.22;13.13;;;;;;;;;;5104316;27;20085;-75
2022/03/10 07:54:33;;;;;;;37.45;13.70;;;;;;;;;;5099578;27;20471;-76
2022/03/10 07:56:58;;;;;;;31.13;12.90;;;;;;;;;;5099822;27;20073;-76
2022/03/10 07:59:24;;;;;;;34.60;13.02;;;;;;;;;;5100803;28;20047;-75
2022/03/10 08:01:49;;;;;;;31.05;12.23;;;;;;;;;;5096791;27;20043;-78
2022/03/10 08:04:15;;;;;;;40.75;14.20;;;;;;;;;;5110587;27;20367;-78
2022/03/10 08:06:40;;;;;;;38.42;14.25;;;;;;;;;;5104206;27;20044;-77
2022/03/10 08:09:06;;;;;;;35.08;13.10;;;;;;;;;;5100965;27;20039;-76
2022/03/10 08:11:32;;;;;;;36.88;13.82;;;;;;;;;;5094521;28;20031;-74
2022/03/10 08:13:57;;;;;;;31.30;12.63;;;;;;;;;;5103744;27;20085;-73
2022/03/10 08:16:23;;;;;;;29.63;12.15;;;;;;;;;;5106198;27;20290;-78
2022/03/10 08:18:49;;;;;;;36.78;14.93;;;;;;;;;;5106382;27;20048;-75
2022/03/10 08:21:15;;;;;;;35.10;14.20;;;;;;;;;;5090588;28;20576;-77
2022/03/10 08:23:40;;;;;;;33.70;14.13;;;;;;;;;;5103111;27;20058;-80
2022/03/10 08:26:07;;;;;;;31.17;13.80;;;;;;;;;;5100264;28;20119;-79
2022/03/10 08:28:33;;;;;;;39.05;13.65;;;;;;;;;;5103079;28;20128;-75
2022/03/10 08:30:59;;;;;;;31.05;14.65;;;;;;;;;;5102708;28;20048;-75
2022/03/10 08:33:24;;;;;;;34.25;14.15;;;;;;;;;;5101081;27;20501;-77
2022/03/10 08:35:50;;;;;;;37.90;15.02;;;;;;;;;;5100464;27;20039;-75
2022/03/10 08:38:16;;;;;;;31.17;13.90;;;;;;;;;;5102053;28;20110;-80
2022/03/10 08:40:42;;;;;;;37.63;18.23;;;;;;;;;;5100842;27;20496;-76
2022/03/10 08:43:11;;;;;;;34.72;14.60;;;;;;;;;;5121110;27;20586;-79
2022/03/10 08:45:37;;;;;;;33.95;13.65;;;;;;;;;;5111056;27;20142;-77
2022/03/10 08:48:03;;;;;;;31.73;12.90;;;;;;;;;;5109821;28;20084;-81
2022/03/10 08:50:29;;;;;;;32.45;13.98;;;;;;;;;;5110528;28;20059;-81
2022/03/10 08:52:54;;;;;;;30.55;12.70;;;;;;;;;;5105370;28;20145;-80
2022/03/10 08:55:20;;;;;;;33.00;14.07;;;;;;;;;;5098272;28;20040;-79
2022/03/10 08:57:47;;;;;;;31.25;14.02;;;;;;;;;;5099077;28;20452;-76
2022/03/10 09:00:13;;;;;;;34.08;12.82;;;;;;;;;;5104967;28;20535;-77
2022/03/10 09:02:41;;;;;;;31.38;13.38;;;;;;;;;;5101085;27;20031;-79
2022/03/10 09:05:08;;;;;;;32.58;14.30;;;;;;;;;;5109840;27;20023;-76
2022/03/10 09:07:34;;;;;;;36.40;14.45;;;;;;;;;;5107680;27;20112;-75
2022/03/10 09:09:59;;;;;;;34.08;15.05;;;;;;;;;;5103974;27;20039;-73
2022/03/10 09:12:24;;;;;;;33.20;14.38;;;;;;;;;;5108771;27;20039;-78
2022/03/10 09:14:50;;;;;;;33.40;14.20;;;;;;;;;;5105409;27;20084;-78
2022/03/10 09:17:15;;;;;;;33.17;13.75;;;;;;;;;;5108455;28;20034;-75
2022/03/10 09:19:40;;;;;;;32.83;14.15;;;;;;;;;;5104620;27;20036;-76
2022/03/10 09:22:06;;;;;;;33.47;14.45;;;;;;;;;;5107084;28;20096;-76
2022/03/10 09:24:31;;;;;;;33.25;13.52;;;;;;;;;;5106117;28;20081;-75
2022/03/10 09:26:57;;;;;;;31.38;13.77;;;;;;;;;;5106235;27;20564;-77
2022/03/10 09:29:23;;;;;;;33.72;14.48;;;;;;;;;;5103049;28;20137;-74
2022/03/10 09:31:48;;;;;;;32.25;13.55;;;;;;;;;;5108572;27;20036;-75
2022/03/10 09:34:14;;;;;;;36.08;14.48;;;;;;;;;;5089135;28;20040;-74
2022/03/10 09:36:39;;;;;;;32.03;13.68;;;;;;;;;;5101660;28;20462;-75
2022/03/10 09:39:05;;;;;;;29.95;11.60;;;;;;;;;;5096686;27;20047;-73
2022/03/10 09:41:30;;;;;;;36.00;14.23;;;;;;;;;;5092357;28;20034;-77
2022/03/10 09:43:56;;;;;;;31.05;13.00;;;;;;;;;;5096437;28;20051;-74
2022/03/10 09:46:22;;;;;;;34.60;15.98;;;;;;;;;;5101396;28;20144;-73
2022/03/10 09:48:47;;;;;;;32.42;13.45;;;;;;;;;;5095604;27;20170;-73
2022/03/10 09:51:13;;;;;;;31.38;14.38;;;;;;;;;;5085185;28;20135;-77
2022/03/10 09:53:39;;;;;;;42.20;17.23;;;;;;;;;;5085563;28;20024;-76
2022/03/10 09:56:05;;;;;;;38.55;15.43;;;;;;;;;;5084343;28;20016;-79
2022/03/10 09:58:31;;;;;;;36.33;14.68;;;;;;;;;;5075393;27;20109;-77
2022/03/10 10:01:03;;;;;;;37.50;16.10;;;;;;;;;;5074542;28;20032;-76
2022/03/10 10:03:29;;;;;;;41.33;17.07;;;;;;;;;;5087108;27;20040;-76
2022/03/10 10:06:00;;;;;;;47.47;16.42;;;;;;;;;;5100926;28;20270;-79
2022/03/10 10:08:26;;;;;;;33.33;13.63;;;;;;;;;;5070374;28;20031;-77
2022/03/10 10:10:53;;;;;;;32.88;13.38;;;;;;;;;;5098941;27;20043;-78
2022/03/10 10:13:31;;;;;;;46.38;16.77;;;;;;;;;;5086273;28;20462;-77
2022/03/10 10:16:02;;;;;;;54.15;20.92;;;;;;;;;;5096224;28;20158;-76
2022/03/10 10:18:29;;;;;;;35.13;15.13;;;;;;;;;;5098387;28;20037;-76
2022/03/10 10:20:55;;;;;;;30.95;13.73;;;;;;;;;;5092312;27;20108;-74
2022/03/10 10:23:26;;;;;;;34.72;13.52;;;;;;;;;;5102482;28;20055;-74
2022/03/10 10:25:58;;;;;;;42.88;16.90;;;;;;;;;;5096412;28;20174;-72
2022/03/10 10:28:27;;;;;;;43.03;16.63;;;;;;;;;;5089269;28;20054;-71
2022/03/10 10:30:56;;;;;;;61.75;20.90;;;;;;;;;;5098758;27;20173;-73
2022/03/10 10:33:22;;;;;;;44.80;16.98;;;;;;;;;;5105974;27;20516;-75
2022/03/10 10:35:47;;;;;;;41.25;15.50;;;;;;;;;;5105231;27;20034;-76
2022/03/10 10:38:28;;;;;;;46.03;16.88;;;;;;;;;;5101174;28;20035;-76
2022/03/10 10:41:24;;;;;;;40.65;15.75;;;;;;;;;;5104374;27;20063;-77
2022/03/10 10:44:01;;;;;;;37.10;13.63;;;;;;;;;;5099169;28;20119;-73
2022/03/10 10:46:34;;;;;;;48.92;16.77;;;;;;;;;;5105200;27;20036;-72
2022/03/10 10:49:05;;;;;;;46.88;19.13;;;;;;;;;;5103696;28;20099;-72
2022/03/10 10:51:30;;;;;;;51.75;20.52;;;;;;;;;;5097973;28;20042;-75
2022/03/10 10:54:00;;;;;;;47.65;18.77;;;;;;;;;;5103052;28;20039;-74
2022/03/10 10:56:28;;;;;;;51.35;19.25;;;;;;;;;;5105679;28;20024;-74
2022/03/10 10:58:54;;;;;;;52.63;20.83;;;;;;;;;;5104436;27;20047;-72
2022/03/10 11:01:31;;;;;;;57.05;20.00;;;;;;;;;;5104350;28;20061;-75
2022/03/10 11:03:57;;;;;;;50.67;17.67;;;;;;;;;;5101880;28;20068;-77
2022/03/10 11:06:22;;;;;;;53.08;22.25;;;;;;;;;;5105177;27;20116;-77
2022/03/10 11:08:49;;;;;;;51.85;20.60;;;;;;;;;;5107508;27;20023;-75
2022/03/10 11:11:15;;;;;;;57.17;23.38;;;;;;;;;;5109502;27;20039;-75
2022/03/10 11:13:41;;;;;;;56.08;22.00;;;;;;;;;;5102624;27;20036;-76
2022/03/10 11:16:07;;;;;;;64.38;23.85;;;;;;;;;;5104520;27;20039;-76
2022/03/10 11:18:33;;;;;;;57.10;22.35;;;;;;;;;;5102774;28;20475;-76
2022/03/10 11:21:15;;;;;;;53.40;21.77;;;;;;;;;;5105076;28;20134;-75
2022/03/10 11:24:06;;;;;;;53.17;20.30;;;;;;;;;;5104679;27;20085;-76
2022/03/10 11:27:01;;;;;;;53.17;20.77;;;;;;;;;;5106213;27;20031;-76
2022/03/10 11:29:27;;;;;;;57.10;20.13;;;;;;;;;;5099711;27;20038;-75
2022/03/10 11:31:53;;;;;;;59.33;21.70;;;;;;;;;;5105846;27;20031;-75
2022/03/10 11:34:45;;;;;;;55.63;21.27;;;;;;;;;;5091841;27;20040;-75
2022/03/10 11:37:11;;;;;;;52.38;19.17;;;;;;;;;;5085324;28;20079;-75
2022/03/10 11:39:55;;;;;;;46.72;18.90;;;;;;;;;;5087173;28;20071;-75
2022/03/10 11:42:32;;;;;;;45.15;18.05;;;;;;;;;;5079622;28;20466;-75
2022/03/10 11:45:17;;;;;;;45.90;17.45;;;;;;;;;;5080650;27;20043;-75
2022/03/10 11:47:43;;;;;;;48.78;17.40;;;;;;;;;;5087392;27;20023;-75
2022/03/10 11:50:23;;;;;;;41.40;16.98;;;;;;;;;;5088545;28;20508;-75
2022/03/10 11:52:59;;;;;;;32.03;13.85;;;;;;;;;;5085274;28;20090;-74
2022/03/10 11:55:51;;;;;;;37.03;15.20;;;;;;;;;;5079863;27;20094;-75
2022/03/10 11:58:30;;;;;;;34.40;13.73;;;;;;;;;;5085757;28;20055;-74
2022/03/10 12:00:57;;;;;;;23.00;10.82;;;;;;;;;;5084325;27;20044;-76
2022/03/10 12:03:35;;;;;;;26.05;10.93;;;;;;;;;;5082653;28;20032;-77
2022/03/10 12:06:05;;;;;;;26.73;11.68;;;;;;;;;;5106351;27;20032;-76
2022/03/10 12:08:35;;;;;;;29.45;11.77;;;;;;;;;;5093147;27;20109;-76
2022/03/10 12:11:02;;;;;;;37.03;16.90;;;;;;;;;;5107072;27;21224;-76
2022/03/10 12:13:34;;;;;;;29.42;13.00;;;;;;;;;;5103511;27;20039;-76
2022/03/10 12:16:02;;;;;;;21.20;10.57;;;;;;;;;;5107512;27;20036;-76
2022/03/10 12:18:40;;;;;;;20.48;9.32;;;;;;;;;;5103983;27;20059;-76
2022/03/10 12:21:18;;;;;;;21.70;9.40;;;;;;;;;;5097731;27;20031;-76
2022/03/10 12:24:04;;;;;;;21.60;10.30;;;;;;;;;;5108101;27;20031;-78
2022/03/10 12:26:43;;;;;;;18.80;8.57;;;;;;;;;;5102336;28;20019;-75
2022/03/10 12:29:11;;;;;;;15.85;7.30;;;;;;;;;;5103694;28;20464;-75
2022/03/10 12:31:38;;;;;;;21.42;10.00;;;;;;;;;;5107303;27;20063;-76
2022/03/10 12:34:17;;;;;;;19.20;8.13;;;;;;;;;;5105537;27;20130;-76
2022/03/10 12:36:49;;;;;;;23.20;10.30;;;;;;;;;;5105699;27;20028;-76
2022/03/10 12:39:16;;;;;;;22.27;10.48;;;;;;;;;;5096929;28;20036;-76
2022/03/10 12:41:42;;;;;;;17.85;8.25;;;;;;;;;;5098069;28;20410;-76
2022/03/10 12:44:10;;;;;;;16.67;7.95;;;;;;;;;;5091579;28;20793;-75
2022/03/10 12:46:45;;;;;;;16.85;8.98;;;;;;;;;;5108382;28;20036;-76
2022/03/10 12:49:23;;;;;;;19.02;8.98;;;;;;;;;;5092956;28;20039;-76
2022/03/10 12:51:48;;;;;;;19.33;8.70;;;;;;;;;;5103863;28;20032;-76
2022/03/10 12:54:15;;;;;;;15.60;8.05;;;;;;;;;;5095135;28;20492;-79
2022/03/10 12:57:05;;;;;;;13.23;6.55;;;;;;;;;;5107594;28;20763;-76
2022/03/10 12:59:33;;;;;;;14.88;7.50;;;;;;;;;;5097093;27;20052;-75
2022/03/10 13:02:19;;;;;;;20.23;7.88;;;;;;;;;;5088952;28;20039;-76
2022/03/10 13:04:51;;;;;;;10.57;5.53;;;;;;;;;;5096038;27;20516;-76
2022/03/10 13:07:17;;;;;;;15.98;7.30;;;;;;;;;;5107758;27;20036;-76
2022/03/10 13:09:57;;;;;;;17.17;7.95;;;;;;;;;;5106624;27;20035;-76
2022/03/10 13:12:34;;;;;;;15.95;7.55;;;;;;;;;;5103599;27;20039;-76
2022/03/10 13:15:01;;;;;;;17.30;8.27;;;;;;;;;;5103946;27;20040;-76
2022/03/10 13:17:41;;;;;;;15.38;8.00;;;;;;;;;;5101351;27;20024;-75
2022/03/10 13:20:13;;;;;;;13.15;7.55;;;;;;;;;;5076622;28;20047;-76
2022/03/10 13:22:44;;;;;;;17.63;7.15;;;;;;;;;;5081256;28;20032;-76
2022/03/10 13:25:10;;;;;;;15.98;7.85;;;;;;;;;;5108030;27;20171;-76
2022/03/10 13:27:35;;;;;;;13.88;6.85;;;;;;;;;;5105764;27;20032;-76
2022/03/10 13:30:01;;;;;;;15.50;7.45;;;;;;;;;;5103181;27;20036;-75
2022/03/10 13:32:30;;;;;;;16.33;6.72;;;;;;;;;;5100404;28;20016;-76
2022/03/10 13:35:00;;;;;;;14.85;6.45;;;;;;;;;;5072804;28;20048;-76
2022/03/10 13:37:26;;;;;;;14.40;7.03;;;;;;;;;;5076354;28;20036;-76
2022/03/10 13:39:52;;;;;;;15.48;8.07;;;;;;;;;;5088101;27;20136;-77
2022/03/10 13:42:29;;;;;;;19.50;7.65;;;;;;;;;;5101363;27;20027;-73
2022/03/10 13:45:05;;;;;;;9.80;6.03;;;;;;;;;;5104975;28;20059;-72
2022/03/10 13:47:50;;;;;;;18.13;7.82;;;;;;;;;;5105923;27;20065;-75
2022/03/10 13:50:21;;;;;;;10.35;5.18;;;;;;;;;;5113919;27;20503;-74
2022/03/10 13:52:53;;;;;;;13.88;7.28;;;;;;;;;;5125876;27;20504;-73
2022/03/10 13:55:24;;;;;;;12.63;7.18;;;;;;;;;;5106324;27;20070;-74
2022/03/10 13:57:50;;;;;;;16.13;8.00;;;;;;;;;;5104554;27;20035;-76
2022/03/10 14:00:16;;;;;;;15.68;7.28;;;;;;;;;;5094623;28;20085;-75
2022/03/10 14:02:50;;;;;;;16.10;7.35;;;;;;;;;;5104987;27;20051;-72
2022/03/10 14:05:16;;;;;;;13.38;6.55;;;;;;;;;;5107151;27;20059;-72
2022/03/10 14:08:09;;;;;;;10.38;6.00;;;;;;;;;;5104153;28;20066;-73
2022/03/10 14:10:35;;;;;;;14.43;7.72;;;;;;;;;;5081469;28;20028;-78
2022/03/10 14:13:01;;;;;;;17.90;9.10;;;;;;;;;;5080922;28;20089;-72
2022/03/10 14:15:32;;;;;;;18.67;8.68;;;;;;;;;;5083991;28;20532;-73
2022/03/10 14:17:58;;;;;;;19.40;8.70;;;;;;;;;;5083057;27;20039;-73
2022/03/10 14:20:48;;;;;;;20.33;8.63;;;;;;;;;;5075267;28;20028;-74
2022/03/10 14:23:18;;;;;;;16.42;8.13;;;;;;;;;;5069591;28;20040;-74
2022/03/10 14:25:48;;;;;;;19.98;9.50;;;;;;;;;;5098737;28;20039;-72
2022/03/10 14:28:16;;;;;;;15.20;7.97;;;;;;;;;;5101607;28;20907;-72